Time;durP1;ratioP1;P1;durP2;ratioP2;P2;SDS_P1;SDS_P2;PMS_P1;PMS_P2;Temp;Humidity;BMP_temperature;BMP_pressure;BME280_temperature;BME280_humidity;BME280_pressure;Samples;Min_cycle;Max_cycle;Signal;HPM_P1;HPM_P2
2022/08/26 00:02:03;;;;;;;33.53;14.25;;;;;;;16.19;100.00;97976.55;1741415;81;21006;-90
2022/08/26 00:04:30;;;;;;;32.83;13.78;;;;;;;16.14;100.00;97976.11;1743761;81;21462;-86
2022/08/26 00:06:56;;;;;;;30.23;12.73;;;;;;;16.13;100.00;97979.97;1740541;81;21054;-90
2022/08/26 00:09:23;;;;;;;23.83;12.78;;;;;;;16.11;100.00;97981.42;1734311;82;21127;-90
2022/08/26 00:11:49;;;;;;;24.07;13.13;;;;;;;16.08;100.00;97982.87;1735767;81;20999;-90
2022/08/26 00:14:15;;;;;;;26.30;13.30;;;;;;;16.04;100.00;97979.14;1762162;81;20886;-89
2022/08/26 00:16:41;;;;;;;29.48;12.90;;;;;;;15.98;100.00;97979.86;1760514;81;20983;-86
2022/08/26 00:19:07;;;;;;;21.15;12.33;;;;;;;15.93;100.00;97973.16;1744503;82;21034;-90
2022/08/26 00:21:33;;;;;;;22.00;13.65;;;;;;;15.89;100.00;97966.70;1752269;81;20979;-87
2022/08/26 00:23:59;;;;;;;19.98;12.10;;;;;;;15.88;100.00;97968.38;1748851;81;20938;-90
2022/08/26 00:26:25;;;;;;;22.10;12.15;;;;;;;15.86;100.00;97964.61;1742553;82;20946;-90
2022/08/26 00:28:51;;;;;;;26.25;11.93;;;;;;;15.87;100.00;97965.41;1751102;81;20835;-86
2022/08/26 00:31:17;;;;;;;25.20;11.50;;;;;;;15.84;100.00;97968.78;1751512;81;20903;-86
2022/08/26 00:33:43;;;;;;;22.00;12.03;;;;;;;15.84;100.00;97970.95;1751110;82;21300;-89
2022/08/26 00:36:09;;;;;;;23.90;12.15;;;;;;;15.82;100.00;97968.30;1741187;81;20994;-85
2022/08/26 00:38:36;;;;;;;19.65;11.00;;;;;;;15.78;100.00;97972.20;1751025;82;20902;-90
2022/08/26 00:41:01;;;;;;;20.52;10.88;;;;;;;15.77;100.00;97973.33;1750930;82;21022;-90
2022/08/26 00:43:29;;;;;;;24.37;11.60;;;;;;;15.76;100.00;97973.89;1740660;81;21049;-86
2022/08/26 00:46:11;;;;;;;26.60;11.78;;;;;;;15.76;100.00;97972.52;1725195;82;21294;-86
2022/08/26 00:48:37;;;;;;;20.05;12.23;;;;;;;15.71;100.00;97967.75;1743280;82;21494;-90
2022/08/26 00:51:09;;;;;;;21.25;11.78;;;;;;;15.70;100.00;97966.94;1740714;82;21022;-90
2022/08/26 00:53:38;;;;;;;19.12;10.20;;;;;;;15.73;100.00;97966.89;1740512;81;20951;-86
2022/08/26 00:56:12;;;;;;;23.50;11.40;;;;;;;15.70;100.00;97964.21;1737939;79;20909;-89
2022/08/26 00:58:41;;;;;;;26.48;11.93;;;;;;;15.70;100.00;97960.11;1730774;80;21089;-86
2022/08/26 01:01:06;;;;;;;19.85;11.65;;;;;;;15.66;100.00;97963.23;1735887;79;21031;-91
2022/08/26 01:03:33;;;;;;;23.45;13.00;;;;;;;15.65;100.00;97965.73;1751254;81;20870;-91
2022/08/26 01:05:59;;;;;;;20.95;12.58;;;;;;;15.63;100.00;97961.12;1751341;81;21008;-90
2022/08/26 01:08:24;;;;;;;23.75;12.03;;;;;;;15.60;100.00;97967.75;1766199;81;20946;-86
2022/08/26 01:10:51;;;;;;;20.35;10.58;;;;;;;15.53;100.00;97966.26;1765771;79;21188;-90
2022/08/26 01:13:17;;;;;;;16.85;10.13;;;;;;;15.56;100.00;97970.88;1753859;81;21050;-90
2022/08/26 01:15:55;;;;;;;17.05;10.72;;;;;;;15.52;100.00;97969.31;1734192;81;21012;-86
2022/08/26 01:18:21;;;;;;;18.73;11.45;;;;;;;15.51;100.00;97966.34;1731703;81;20975;-87
2022/08/26 01:20:58;;;;;;;23.10;11.00;;;;;;;15.48;100.00;97975.16;1754198;81;20877;-86
2022/08/26 01:23:34;;;;;;;14.18;8.98;;;;;;;15.40;100.00;97971.27;1752599;81;21161;-90
2022/08/26 01:26:05;;;;;;;21.85;10.85;;;;;;;15.36;100.00;97964.80;1728364;81;20960;-86
2022/08/26 01:28:32;;;;;;;23.95;10.72;;;;;;;15.33;100.00;97964.63;1754743;81;20977;-89
2022/08/26 01:30:58;;;;;;;18.17;10.28;;;;;;;15.30;100.00;97959.80;1766852;81;21018;-85
2022/08/26 01:33:32;;;;;;;19.12;10.63;;;;;;;15.28;100.00;97966.91;1742304;81;20988;-86
2022/08/26 01:35:58;;;;;;;23.18;9.63;;;;;;;15.23;100.00;97974.69;1766573;81;21155;-85
2022/08/26 01:38:26;;;;;;;26.85;10.63;;;;;;;15.21;100.00;97978.82;1757121;81;20895;-90
2022/08/26 01:40:52;;;;;;;19.32;11.53;;;;;;;15.17;100.00;97974.55;1740820;81;21023;-86
2022/08/26 01:43:22;;;;;;;16.62;10.35;;;;;;;15.12;100.00;97973.30;1741632;81;20899;-90
2022/08/26 01:45:48;;;;;;;17.42;9.33;;;;;;;15.08;100.00;97975.61;1754162;81;20997;-89
2022/08/26 01:48:18;;;;;;;21.02;10.05;;;;;;;15.04;100.00;97971.88;1757891;81;21451;-91
2022/08/26 01:50:44;;;;;;;25.25;10.93;;;;;;;14.98;100.00;97977.22;1746527;81;21038;-90
2022/08/26 01:53:11;;;;;;;20.90;9.30;;;;;;;14.94;100.00;97971.56;1744563;81;20899;-86
2022/08/26 01:55:40;;;;;;;18.42;9.05;;;;;;;14.94;100.00;97969.64;1753980;81;21411;-87
2022/08/26 01:58:09;;;;;;;15.63;8.93;;;;;;;14.93;100.00;97976.21;1751970;81;21006;-85
2022/08/26 02:00:35;;;;;;;14.55;9.75;;;;;;;14.93;100.00;97967.22;1753692;81;21007;-85
2022/08/26 02:03:16;;;;;;;15.48;10.18;;;;;;;14.92;100.00;97966.42;1736067;81;21048;-89
2022/08/26 02:05:56;;;;;;;24.65;11.60;;;;;;;14.91;100.00;97963.45;1712822;82;20966;-85
2022/08/26 02:08:36;;;;;;;23.20;10.55;;;;;;;14.85;100.00;97964.67;1730794;81;20958;-86
2022/08/26 02:11:02;;;;;;;15.72;10.40;;;;;;;14.79;100.00;97961.84;1731573;81;21500;-86
2022/08/26 02:13:30;;;;;;;15.35;10.43;;;;;;;14.75;100.00;97962.19;1741433;81;21829;-90
2022/08/26 02:15:56;;;;;;;17.30;9.80;;;;;;;14.72;100.00;97958.72;1726035;81;21056;-86
2022/08/26 02:18:23;;;;;;;21.05;10.45;;;;;;;14.70;100.00;97957.39;1740735;81;21484;-86
2022/08/26 02:20:50;;;;;;;22.25;9.70;;;;;;;14.69;100.00;97953.86;1751262;81;20989;-90
2022/08/26 02:23:16;;;;;;;16.73;9.25;;;;;;;14.69;100.00;97951.14;1676224;82;20997;-90
2022/08/26 02:26:08;;;;;;;18.27;9.15;;;;;;;14.65;100.00;97952.32;1739945;81;21710;-90
2022/08/26 02:28:55;;;;;;;16.30;8.43;;;;;;;14.63;100.00;97951.83;1739951;81;21429;-90
2022/08/26 02:31:21;;;;;;;19.20;9.45;;;;;;;14.61;100.00;97953.23;1757262;81;21018;-88
2022/08/26 02:33:47;;;;;;;15.32;8.08;;;;;;;14.59;100.00;97949.45;1765812;80;20982;-87
2022/08/26 02:36:22;;;;;;;10.75;8.23;;;;;;;14.55;100.00;97953.11;1752502;80;21006;-85
2022/08/26 02:38:48;;;;;;;19.62;9.30;;;;;;;14.57;100.00;97951.69;1750623;81;21277;-86
2022/08/26 02:41:14;;;;;;;21.77;11.15;;;;;;;14.54;100.00;97951.51;1752239;81;20871;-86
2022/08/26 02:43:40;;;;;;;12.10;7.87;;;;;;;14.55;100.00;97952.55;1754246;81;20839;-87
2022/08/26 02:46:06;;;;;;;21.42;9.13;;;;;;;14.54;100.00;97955.03;1766007;80;20871;-90
2022/08/26 02:48:32;;;;;;;25.45;9.33;;;;;;;14.50;100.00;97955.94;1765990;80;20862;-86
2022/08/26 02:50:59;;;;;;;15.23;8.43;;;;;;;14.46;100.00;97953.03;1766044;80;21156;-89
2022/08/26 02:53:25;;;;;;;19.15;8.25;;;;;;;14.40;100.00;97955.02;1765784;81;20962;-90
2022/08/26 02:55:51;;;;;;;18.17;9.58;;;;;;;14.39;100.00;97953.97;1765961;81;20880;-87
2022/08/26 02:58:17;;;;;;;19.20;8.28;;;;;;;14.32;100.00;97948.93;1765846;81;20954;-86
2022/08/26 03:00:45;;;;;;;20.27;9.13;;;;;;;14.26;100.00;97955.59;1765957;81;20958;-86
2022/08/26 03:03:11;;;;;;;15.13;8.38;;;;;;;14.17;100.00;97949.80;1763354;80;21065;-89
2022/08/26 03:05:37;;;;;;;15.08;8.60;;;;;;;14.16;100.00;97950.36;1754334;80;20955;-86
2022/08/26 03:08:03;;;;;;;14.40;9.65;;;;;;;14.14;100.00;97947.14;1738904;81;21409;-90
2022/08/26 03:10:30;;;;;;;16.75;9.50;;;;;;;14.16;100.00;97950.92;1732769;81;21494;-90
2022/08/26 03:12:59;;;;;;;19.25;10.20;;;;;;;14.16;100.00;97949.00;1738105;80;21021;-91
2022/08/26 03:15:25;;;;;;;14.60;9.53;;;;;;;14.20;100.00;97951.94;1765263;81;21419;-86
2022/08/26 03:17:51;;;;;;;16.80;9.18;;;;;;;14.25;100.00;97948.53;1749889;81;21576;-90
2022/08/26 03:20:17;;;;;;;14.13;8.30;;;;;;;14.27;100.00;97953.14;1735680;82;21108;-91
2022/08/26 03:22:43;;;;;;;15.75;8.18;;;;;;;14.27;100.00;97951.78;1749450;81;20883;-86
2022/08/26 03:25:11;;;;;;;20.35;8.35;;;;;;;14.27;100.00;97953.67;1747655;81;21082;-90
2022/08/26 03:27:37;;;;;;;15.65;8.28;;;;;;;14.24;100.00;97950.20;1763238;80;21189;-90
2022/08/26 03:32:48;;;;;;;15.78;9.13;;;;;;;14.22;100.00;97951.88;1747578;81;21419;-86
2022/08/26 03:35:14;;;;;;;20.77;9.25;;;;;;;14.22;100.00;97945.06;1761386;81;20946;-86
2022/08/26 03:37:40;;;;;;;16.57;8.25;;;;;;;14.21;100.00;97944.81;1761131;80;20966;-86
2022/08/26 03:40:09;;;;;;;17.35;9.48;;;;;;;14.21;100.00;97944.81;1761386;80;21107;-89
2022/08/26 03:42:38;;;;;;;14.60;8.43;;;;;;;14.23;100.00;97943.14;1751151;81;20928;-86
2022/08/26 03:45:06;;;;;;;21.52;9.18;;;;;;;14.21;100.00;97944.02;1741930;81;21086;-90
2022/08/26 03:47:32;;;;;;;15.88;9.33;;;;;;;14.22;100.00;97947.79;1743694;81;20938;-90
2022/08/26 03:49:58;;;;;;;22.07;9.05;;;;;;;14.24;100.00;97944.20;1761473;81;20989;-86
2022/08/26 03:52:24;;;;;;;15.40;8.65;;;;;;;14.21;100.00;97944.02;1762493;81;21115;-90
2022/08/26 03:54:50;;;;;;;15.05;8.75;;;;;;;14.14;100.00;97941.69;1765997;80;20854;-90
2022/08/26 03:57:16;;;;;;;14.45;9.30;;;;;;;14.14;100.00;97948.50;1766175;81;20929;-89
2022/08/26 03:59:42;;;;;;;16.67;9.40;;;;;;;14.11;100.00;97942.31;1766256;81;20898;-86
2022/08/26 04:02:08;;;;;;;22.30;10.10;;;;;;;14.13;100.00;97942.00;1766055;81;21991;-86
2022/08/26 04:04:34;;;;;;;20.90;11.45;;;;;;;14.11;100.00;97939.59;1745377;80;21130;-90
2022/08/26 04:07:00;;;;;;;19.62;10.30;;;;;;;14.10;100.00;97939.34;1738674;81;21072;-89
2022/08/26 04:09:26;;;;;;;16.35;10.15;;;;;;;14.11;100.00;97943.12;1736940;81;20933;-86
2022/08/26 04:11:52;;;;;;;22.73;11.05;;;;;;;14.05;100.00;97941.59;1742357;81;21033;-86
2022/08/26 04:14:22;;;;;;;21.27;11.90;;;;;;;13.99;100.00;97943.36;1748345;81;21080;-85
2022/08/26 04:16:50;;;;;;;18.67;11.90;;;;;;;13.94;100.00;97942.92;1743586;81;21876;-90
2022/08/26 04:19:16;;;;;;;22.40;10.90;;;;;;;13.92;100.00;97941.59;1767939;81;20997;-90
2022/08/26 04:21:43;;;;;;;20.45;12.25;;;;;;;13.91;100.00;97938.62;1772363;81;21383;-85
2022/08/26 04:24:10;;;;;;;19.62;12.65;;;;;;;13.87;100.00;97938.43;1757020;81;21034;-86
2022/08/26 04:26:36;;;;;;;20.17;12.45;;;;;;;13.87;100.00;97933.55;1752088;81;21407;-90
2022/08/26 04:29:06;;;;;;;24.27;11.48;;;;;;;13.86;100.00;97932.73;1752131;81;21200;-88
2022/08/26 04:31:33;;;;;;;19.87;12.13;;;;;;;13.89;100.00;97929.39;1754483;81;20986;-89
2022/08/26 04:33:59;;;;;;;20.97;12.47;;;;;;;13.92;100.00;97934.23;1765651;81;21457;-90
2022/08/26 04:36:25;;;;;;;21.97;11.53;;;;;;;13.97;100.00;97930.61;1763243;80;21591;-90
2022/08/26 04:38:51;;;;;;;23.12;11.18;;;;;;;14.02;100.00;97927.23;1727682;82;20878;-86
2022/08/26 04:41:18;;;;;;;17.87;11.03;;;;;;;14.08;100.00;97927.36;1741246;81;21118;-90
2022/08/26 04:43:45;;;;;;;15.08;10.28;;;;;;;14.13;100.00;97930.55;1751263;80;20994;-90
2022/08/26 04:46:12;;;;;;;17.70;10.40;;;;;;;14.17;100.00;97929.36;1741836;81;20967;-86
2022/08/26 04:48:39;;;;;;;21.15;10.60;;;;;;;14.20;100.00;97921.41;1752876;81;21034;-89
2022/08/26 04:51:05;;;;;;;14.93;8.88;;;;;;;14.23;100.00;97928.96;1759138;79;20988;-87
2022/08/26 04:53:31;;;;;;;22.22;10.00;;;;;;;14.29;100.00;97931.03;1740465;81;21004;-90
2022/08/26 04:55:57;;;;;;;14.68;8.50;;;;;;;14.34;100.00;97928.98;1744877;79;20999;-86
2022/08/26 04:58:24;;;;;;;18.23;8.58;;;;;;;14.38;100.00;97932.72;1740579;81;20895;-86
2022/08/26 05:00:52;;;;;;;13.72;8.58;;;;;;;14.43;100.00;97929.06;1744646;81;21453;-90
2022/08/26 05:03:18;;;;;;;19.73;8.18;;;;;;;14.52;100.00;97929.97;1726599;81;20985;-90
2022/08/26 05:05:46;;;;;;;15.68;8.68;;;;;;;14.59;100.00;97929.00;1741884;81;21104;-86
2022/08/26 05:08:13;;;;;;;15.15;8.65;;;;;;;14.62;100.00;97927.05;1752541;81;21001;-90
2022/08/26 05:10:41;;;;;;;14.78;8.80;;;;;;;14.73;100.00;97930.33;1745374;79;20984;-90
2022/08/26 05:13:07;;;;;;;26.73;9.48;;;;;;;14.80;100.00;97928.55;1768941;81;21001;-90
2022/08/26 05:15:34;;;;;;;19.73;8.60;;;;;;;14.91;100.00;97923.08;1755683;81;21002;-87
2022/08/26 05:18:03;;;;;;;14.35;8.48;;;;;;;14.96;100.00;97928.43;1757956;81;21002;-90
2022/08/26 05:20:31;;;;;;;14.05;8.13;;;;;;;15.00;100.00;97929.41;1740230;81;22136;-91
2022/08/26 05:22:59;;;;;;;13.35;7.40;;;;;;;15.11;100.00;97929.39;1768112;81;21031;-86
2022/08/26 05:25:28;;;;;;;16.40;8.63;;;;;;;15.17;100.00;97930.88;1750168;80;21022;-90
2022/08/26 05:27:54;;;;;;;20.52;8.33;;;;;;;15.30;100.00;97931.94;1751499;81;21015;-91
2022/08/26 05:30:20;;;;;;;14.15;8.23;;;;;;;15.36;100.00;97927.14;1750750;81;21514;-86
2022/08/26 05:32:49;;;;;;;15.00;9.18;;;;;;;15.46;100.00;97925.50;1747098;81;20908;-86
2022/08/26 05:35:16;;;;;;;16.02;8.25;;;;;;;15.53;100.00;97925.86;1758454;81;21473;-91
2022/08/26 05:37:42;;;;;;;14.50;6.72;;;;;;;15.67;100.00;97927.97;1756429;81;21104;-86
2022/08/26 05:40:09;;;;;;;10.30;7.42;;;;;;;15.78;100.00;97921.66;1757134;80;21033;-86
2022/08/26 05:42:35;;;;;;;13.93;7.87;;;;;;;15.86;100.00;97916.80;1725931;81;21154;-90
2022/08/26 05:45:02;;;;;;;27.73;9.28;;;;;;;15.98;100.00;97909.34;1730394;81;21039;-86
2022/08/26 05:47:28;;;;;;;13.85;8.13;;;;;;;16.06;100.00;97911.30;1771023;80;20954;-86
2022/08/26 05:49:54;;;;;;;18.85;9.25;;;;;;;16.19;100.00;97913.67;1748068;81;20957;-87
2022/08/26 05:52:20;;;;;;;19.52;8.93;;;;;;;16.30;100.00;97923.17;1756677;80;21407;-87
2022/08/26 05:54:46;;;;;;;22.48;8.40;;;;;;;16.47;100.00;97908.72;1756472;80;21149;-91
2022/08/26 05:57:12;;;;;;;20.60;8.15;;;;;;;16.72;100.00;97912.06;1748736;81;21019;-91
2022/08/26 05:59:39;;;;;;;18.87;8.10;;;;;;;17.00;100.00;97911.14;1746044;81;33261;-86
2022/08/26 06:02:05;;;;;;;18.30;8.98;;;;;;;17.20;100.00;97907.75;1752763;81;21017;-90
2022/08/26 06:04:31;;;;;;;18.42;9.13;;;;;;;17.35;100.00;97902.33;1748450;81;20942;-91
2022/08/26 06:06:57;;;;;;;13.75;8.15;;;;;;;17.47;100.00;97903.00;1756284;81;21509;-91
2022/08/26 06:09:23;;;;;;;15.28;7.87;;;;;;;17.62;100.00;97901.10;1751765;80;20930;-91
2022/08/26 06:11:50;;;;;;;17.20;8.98;;;;;;;17.67;100.00;97903.64;1758387;81;20981;-91
2022/08/26 06:14:16;;;;;;;11.90;8.23;;;;;;;17.70;100.00;97908.52;1766557;81;21025;-86
2022/08/26 06:16:43;;;;;;;14.33;8.13;;;;;;;17.77;100.00;97905.23;1723069;82;21052;-90
2022/08/26 06:19:11;;;;;;;17.17;8.38;;;;;;;17.86;100.00;97904.66;1755044;81;20986;-86
2022/08/26 06:21:40;;;;;;;16.83;8.90;;;;;;;17.90;100.00;97906.16;1766709;81;21056;-90
2022/08/26 06:27:01;;;;;;;17.45;8.53;;;;;;;18.30;100.00;97908.77;1750360;81;22179;-86
2022/08/26 06:29:29;;;;;;;17.10;7.85;;;;;;;18.50;100.00;97906.36;1753905;81;21079;-90
2022/08/26 06:31:55;;;;;;;17.90;8.95;;;;;;;18.55;100.00;97906.98;1756478;81;21791;-89
2022/08/26 06:34:21;;;;;;;15.48;7.70;;;;;;;18.73;100.00;97909.05;1755167;81;20961;-87
2022/08/26 06:36:48;;;;;;;17.25;7.53;;;;;;;19.10;100.00;97906.45;1712670;82;21023;-90
2022/08/26 06:39:15;;;;;;;14.80;8.30;;;;;;;19.45;100.00;97906.88;1737028;81;21608;-91
2022/08/26 06:41:43;;;;;;;16.17;7.92;;;;;;;19.81;100.00;97906.73;1761185;80;21080;-91
2022/08/26 06:44:09;;;;;;;16.37;8.55;;;;;;;19.90;100.00;97908.80;1757877;80;21234;-87
2022/08/26 06:46:35;;;;;;;10.85;7.40;;;;;;;20.14;100.00;97908.80;1742493;80;20978;-88
2022/08/26 06:49:02;;;;;;;14.50;6.95;;;;;;;20.18;99.93;97904.22;1757537;80;20996;-88
2022/08/26 06:51:31;;;;;;;15.48;8.55;;;;;;;20.16;98.33;97905.70;1758565;81;20970;-91
2022/08/26 06:53:58;;;;;;;17.70;7.53;;;;;;;20.33;100.00;97906.02;1756453;79;21560;-86
2022/08/26 06:56:27;;;;;;;12.60;8.23;;;;;;;20.50;99.99;97903.84;1724402;81;21265;-87
2022/08/26 06:58:53;;;;;;;17.85;8.43;;;;;;;20.65;96.88;97904.28;1748943;81;21008;-87
2022/08/26 07:01:24;;;;;;;18.12;7.95;;;;;;;21.03;97.13;97896.34;1756008;80;20981;-86
2022/08/26 07:03:52;;;;;;;29.23;9.48;;;;;;;21.64;97.36;97894.66;1754792;81;21073;-90
2022/08/26 07:06:18;;;;;;;12.82;6.40;;;;;;;22.24;96.07;97894.55;1706771;82;21000;-90
2022/08/26 07:08:49;;;;;;;22.32;6.72;;;;;;;22.91;93.23;97893.07;1750432;81;20976;-87
2022/08/26 07:11:15;;;;;;;16.82;7.12;;;;;;;23.32;90.30;97895.63;1749014;79;21370;-88
2022/08/26 07:13:43;;;;;;;19.48;6.55;;;;;;;23.51;90.74;97888.70;1743163;81;21570;-87
2022/08/26 07:16:12;;;;;;;15.80;6.05;;;;;;;23.95;88.55;97890.25;1752602;81;21394;-92
2022/08/26 07:18:39;;;;;;;10.00;5.90;;;;;;;24.44;85.10;97894.37;1752512;80;21045;-87
2022/08/26 07:21:07;;;;;;;12.40;5.47;;;;;;;24.67;85.69;97888.16;1739749;81;21210;-92
2022/08/26 07:23:33;;;;;;;17.12;6.45;;;;;;;25.15;83.33;97889.78;1751237;80;20971;-87
2022/08/26 07:26:08;;;;;;;14.75;6.67;;;;;;;25.43;79.29;97882.94;1747418;81;21036;-91
2022/08/26 07:28:34;;;;;;;15.60;6.37;;;;;;;25.97;78.06;97874.52;1712991;82;21041;-92
2022/08/26 07:31:07;;;;;;;16.07;6.17;;;;;;;26.10;77.45;97873.05;1743062;80;21061;-91
2022/08/26 07:33:34;;;;;;;13.75;5.70;;;;;;;26.30;75.20;97879.12;1747117;81;22031;-88
2022/08/26 07:36:01;;;;;;;15.63;6.00;;;;;;;26.77;76.26;97873.28;1738080;81;21166;-91
2022/08/26 07:38:27;;;;;;;13.10;6.28;;;;;;;27.36;73.33;97872.52;1740863;80;21089;-87
2022/08/26 07:40:53;;;;;;;13.05;6.60;;;;;;;27.64;69.40;97868.97;1759951;81;20953;-87
2022/08/26 07:43:19;;;;;;;14.80;6.42;;;;;;;27.64;70.46;97864.19;1711844;81;21057;-88
2022/08/26 07:45:45;;;;;;;12.58;6.08;;;;;;;28.15;70.83;97869.19;1715805;82;22435;-91
2022/08/26 07:48:11;;;;;;;14.68;6.08;;;;;;;28.72;69.87;97862.92;1735649;81;21553;-87
2022/08/26 07:50:37;;;;;;;12.53;6.62;;;;;;;29.09;66.57;97864.38;1744481;81;21021;-88
2022/08/26 07:53:03;;;;;;;22.65;6.25;;;;;;;29.37;65.65;97864.81;1745323;81;20859;-91
2022/08/26 07:55:29;;;;;;;12.13;5.42;;;;;;;29.61;63.75;97858.91;1752647;80;21035;-91
2022/08/26 07:57:56;;;;;;;16.73;5.92;;;;;;;29.51;57.38;97860.58;1749888;80;21726;-89
2022/08/26 08:00:22;;;;;;;13.72;5.78;;;;;;;29.51;57.38;97860.58;1756290;81;21083;-91
2022/08/26 08:02:48;;;;;;;10.13;7.35;;;;;;;30.25;61.92;97852.78;1744536;81;21076;-90
2022/08/26 08:05:16;;;;;;;16.52;6.00;;;;;;;30.63;59.50;97847.20;1747451;81;20920;-92
2022/08/26 08:07:43;;;;;;;13.93;4.33;;;;;;;31.08;57.80;97843.05;1754221;80;21152;-92
2022/08/26 08:10:21;;;;;;;15.37;4.90;;;;;;;31.63;53.96;97843.91;1704184;81;21091;-91
2022/08/26 08:12:47;;;;;;;12.13;4.80;;;;;;;31.78;51.51;97841.67;1738264;81;21577;-88
2022/08/26 08:15:14;;;;;;;9.45;4.58;;;;;;;31.87;49.71;97834.31;1744578;81;21018;-88
2022/08/26 08:17:42;;;;;;;13.45;4.75;;;;;;;32.58;51.63;97837.08;1743930;80;21064;-91
2022/08/26 08:20:09;;;;;;;8.95;5.20;;;;;;;32.80;49.62;97836.20;1734075;80;21017;-91
2022/08/26 08:22:35;;;;;;;12.10;5.00;;;;;;;33.02;49.06;97827.38;1752328;81;25846;-89
2022/08/26 08:25:01;;;;;;;10.30;4.92;;;;;;;32.99;47.61;97830.45;1753416;81;20902;-88
2022/08/26 08:27:27;;;;;;;17.45;6.12;;;;;;;33.18;44.85;97825.22;1739909;80;21564;-88
2022/08/26 08:29:53;;;;;;;11.38;5.17;;;;;;;33.80;46.00;97823.38;1752779;81;20870;-88
2022/08/26 08:32:20;;;;;;;24.77;6.90;;;;;;;33.94;43.41;97823.05;1756826;81;20997;-92
2022/08/26 08:34:46;;;;;;;8.95;4.60;;;;;;;34.04;41.62;97820.58;1748338;81;21133;-91
2022/08/26 08:37:12;;;;;;;14.73;5.17;;;;;;;34.66;43.22;97817.71;1749908;81;21026;-92
2022/08/26 08:39:38;;;;;;;10.25;5.85;;;;;;;34.53;41.16;97814.88;1742382;81;21035;-88
2022/08/26 08:42:40;;;;;;;12.18;6.40;;;;;;;34.85;41.49;97818.15;1741738;80;21524;-88
2022/08/26 08:45:14;;;;;;;16.10;5.53;;;;;;;35.30;41.23;97808.80;1742019;81;20989;-89
2022/08/26 08:47:46;;;;;;;9.60;4.58;;;;;;;35.98;40.85;97815.06;1695218;83;21462;-88
2022/08/26 08:50:34;;;;;;;8.35;4.12;;;;;;;36.57;39.38;97811.38;1740016;81;21026;-91
2022/08/26 08:53:22;;;;;;;12.10;5.22;;;;;;;36.27;37.85;97812.84;1751725;81;21080;-91
2022/08/26 08:56:29;;;;;;;11.25;4.67;;;;;;;36.97;37.95;97812.14;1742402;81;21056;-88
2022/08/26 08:59:10;;;;;;;9.03;4.47;;;;;;;37.57;38.18;97808.98;1753532;79;21458;-88
2022/08/26 09:02:01;;;;;;;12.93;5.42;;;;;;;37.91;38.10;97807.22;1757958;79;21119;-88
2022/08/26 09:05:09;;;;;;;12.55;4.65;;;;;;;38.07;37.54;97805.52;1752845;80;21461;-91
2022/08/26 09:07:43;;;;;;;8.78;4.37;;;;;;;38.19;36.71;97808.81;1747527;81;21203;-88
2022/08/26 09:10:32;;;;;;;10.72;4.47;;;;;;;38.19;35.92;97805.98;1740940;80;21462;-88
2022/08/26 09:12:58;;;;;;;9.10;5.12;;;;;;;37.97;34.70;97813.84;1744294;79;21544;-92
2022/08/26 09:15:47;;;;;;;9.65;4.35;;;;;;;38.70;35.51;97801.78;1751913;80;21243;-89
2022/08/26 09:18:25;;;;;;;11.88;4.10;;;;;;;38.84;35.04;97799.72;1754136;79;21092;-92
2022/08/26 09:21:03;;;;;;;9.63;4.67;;;;;;;38.50;34.92;97798.02;1752298;79;21080;-91
2022/08/26 09:23:34;;;;;;;13.22;4.08;;;;;;;38.28;33.35;97793.92;1749175;81;21153;-91
2022/08/26 09:26:24;;;;;;;9.80;4.17;;;;;;;37.86;33.17;97797.93;1749611;81;21079;-90
2022/08/26 09:28:59;;;;;;;12.93;4.58;;;;;;;38.46;34.18;97798.19;1745884;79;21070;-88
2022/08/26 09:31:34;;;;;;;14.93;4.92;;;;;;;39.18;33.66;97792.89;1743863;81;21103;-88
2022/08/26 09:34:24;;;;;;;11.10;6.30;;;;;;;39.57;33.32;97794.45;1753188;81;21521;-89
2022/08/26 09:36:52;;;;;;;15.10;5.08;;;;;;;39.30;33.13;97792.52;1745201;81;21030;-89
2022/08/26 09:39:35;;;;;;;14.65;5.25;;;;;;;40.23;32.37;97789.48;1747536;80;21684;-90
2022/08/26 09:42:21;;;;;;;15.35;5.53;;;;;;;39.76;29.18;97786.80;1741744;80;21136;-91
2022/08/26 09:45:03;;;;;;;10.72;4.60;;;;;;;40.52;30.11;97782.34;1740352;81;20887;-89
2022/08/26 09:47:38;;;;;;;9.65;4.95;;;;;;;40.30;30.64;97782.02;1745950;81;21007;-89
2022/08/26 09:50:36;;;;;;;12.23;5.95;;;;;;;40.23;30.46;97785.23;1748003;81;21409;-88
2022/08/26 09:53:18;;;;;;;13.22;4.42;;;;;;;39.70;30.71;97775.97;1749927;81;21009;-88
2022/08/26 09:55:46;;;;;;;10.75;4.65;;;;;;;37.24;33.03;97774.78;1750787;81;21469;-91
2022/08/26 09:58:34;;;;;;;9.08;4.50;;;;;;;36.02;35.82;97770.02;1750075;81;21088;-91
2022/08/26 10:01:03;;;;;;;11.68;4.03;;;;;;;34.91;37.35;97761.52;1757009;81;20981;-90
2022/08/26 10:03:31;;;;;;;15.15;4.37;;;;;;;33.95;38.94;97754.38;1751026;80;21572;-90
2022/08/26 10:06:03;;;;;;;14.07;5.58;;;;;;;32.93;40.84;97757.81;1754091;81;20946;-91
2022/08/26 10:08:40;;;;;;;8.05;4.87;;;;;;;32.27;41.77;97754.54;1749022;81;21127;-90
2022/08/26 10:11:26;;;;;;;12.05;5.28;;;;;;;31.48;43.78;97752.34;1745584;80;21515;-88
2022/08/26 10:14:29;;;;;;;7.47;4.78;;;;;;;31.01;45.10;97748.03;1746299;81;21006;-88
2022/08/26 10:17:10;;;;;;;11.28;4.53;;;;;;;30.47;46.83;97747.95;1708314;83;21043;-91
2022/08/26 10:19:47;;;;;;;13.88;5.12;;;;;;;30.14;47.27;97746.73;1688967;84;21123;-87
2022/08/26 10:22:25;;;;;;;11.05;4.85;;;;;;;29.94;48.12;97738.16;1660878;84;21164;-91
2022/08/26 10:24:56;;;;;;;13.05;5.17;;;;;;;29.81;47.81;97739.88;1668949;84;21033;-87
2022/08/26 10:27:45;;;;;;;13.08;4.53;;;;;;;29.68;48.45;97734.03;1682526;84;21111;-88
2022/08/26 10:30:17;;;;;;;11.55;5.12;;;;;;;29.64;48.81;97731.06;1689319;84;21054;-89
2022/08/26 10:32:51;;;;;;;12.65;4.60;;;;;;;29.53;49.43;97733.17;1688951;83;21040;-91
2022/08/26 10:35:18;;;;;;;9.80;4.78;;;;;;;29.44;49.63;97731.61;1681978;84;21083;-92
2022/08/26 10:37:48;;;;;;;12.58;4.67;;;;;;;29.33;50.00;97733.71;1686536;84;21166;-87
2022/08/26 10:40:27;;;;;;;10.53;5.55;;;;;;;29.28;50.52;97719.40;1685681;84;20994;-87
2022/08/26 10:43:04;;;;;;;12.30;4.90;;;;;;;29.19;51.50;97720.66;1684247;84;21536;-86
2022/08/26 10:45:34;;;;;;;10.35;4.72;;;;;;;29.12;53.23;97731.86;1674474;84;21515;-88
2022/08/26 10:48:04;;;;;;;13.53;4.55;;;;;;;29.05;51.41;97731.91;1715931;83;21087;-87
2022/08/26 10:50:35;;;;;;;16.60;4.95;;;;;;;28.97;50.29;97730.39;1759945;81;21076;-88
2022/08/26 10:53:19;;;;;;;15.95;6.00;;;;;;;28.90;50.81;97728.44;1758156;80;21037;-87
2022/08/26 10:56:08;;;;;;;14.63;5.60;;;;;;;28.73;49.93;97733.50;1719600;82;21035;-88
2022/08/26 10:58:48;;;;;;;13.05;4.75;;;;;;;28.84;50.20;97727.25;1745263;81;21469;-87
2022/08/26 11:01:41;;;;;;;8.80;5.12;;;;;;;28.78;49.26;97730.86;1738592;81;21139;-87
2022/08/26 11:04:38;;;;;;;20.23;4.15;;;;;;;28.70;49.56;97727.92;1731235;81;20980;-87
2022/08/26 11:07:45;;;;;;;9.70;4.70;;;;;;;28.63;48.99;97721.81;1739362;81;21018;-91
2022/08/26 11:10:20;;;;;;;8.93;4.45;;;;;;;28.60;49.58;97717.82;1746366;81;21113;-90
2022/08/26 11:13:02;;;;;;;11.15;4.83;;;;;;;28.54;50.36;97715.28;1741820;81;21080;-89
2022/08/26 11:15:33;;;;;;;13.38;4.10;;;;;;;28.51;49.37;97717.47;1746127;81;21092;-90
2022/08/26 11:18:06;;;;;;;16.42;5.97;;;;;;;28.49;49.34;97717.09;1748162;81;21064;-91
2022/08/26 11:20:45;;;;;;;12.60;5.05;;;;;;;28.57;49.77;97717.85;1754825;80;21083;-87
2022/08/26 11:23:24;;;;;;;8.63;4.22;;;;;;;28.48;50.84;97714.72;1757881;80;21546;-87
2022/08/26 11:26:11;;;;;;;8.20;4.17;;;;;;;28.64;50.74;97710.25;1758113;80;21079;-90
2022/08/26 11:28:49;;;;;;;8.03;4.50;;;;;;;28.60;50.35;97706.67;1753816;81;21773;-87
2022/08/26 11:31:29;;;;;;;;;;;;;;;28.47;49.99;97712.53;1750626;81;21518;-91
2022/08/26 11:33:58;;;;;;;18.40;5.00;;;;;;;28.44;51.17;97702.18;1751182;81;20137;-87
2022/08/26 11:36:44;;;;;;;11.90;4.67;;;;;;;28.51;51.00;97701.36;1751446;81;21070;-87
2022/08/26 11:39:30;;;;;;;11.43;5.55;;;;;;;28.54;49.68;97699.14;1712114;82;21028;-87
2022/08/26 11:42:04;;;;;;;16.62;5.62;;;;;;;28.48;51.02;97696.60;1742607;81;21154;-92